sensor_id;sensor_type;location;lat;lon;timestamp;P1;durP1;ratioP1;P2;durP2;ratioP2
4112;SDS011;2070;51.042;7.056;2023-04-09T00:01:16;41.10;;;23.20;;
4112;SDS011;2070;51.042;7.056;2023-04-09T00:03:41;60.70;;;24.70;;
4112;SDS011;2070;51.042;7.056;2023-04-09T00:06:06;45.90;;;24.27;;
4112;SDS011;2070;51.042;7.056;2023-04-09T00:08:32;45.27;;;23.07;;
4112;SDS011;2070;51.042;7.056;2023-04-09T00:10:58;50.20;;;24.27;;
4112;SDS011;2070;51.042;7.056;2023-04-09T00:13:23;40.10;;;20.33;;
4112;SDS011;2070;51.042;7.056;2023-04-09T00:15:48;55.93;;;24.10;;
4112;SDS011;2070;51.042;7.056;2023-04-09T00:18:13;46.30;;;23.03;;
4112;SDS011;2070;51.042;7.056;2023-04-09T00:20:39;46.70;;;22.57;;
4112;SDS011;2070;51.042;7.056;2023-04-09T00:23:04;52.73;;;22.87;;
4112;SDS011;2070;51.042;7.056;2023-04-09T00:25:30;49.07;;;23.60;;
4112;SDS011;2070;51.042;7.056;2023-04-09T00:27:55;41.37;;;21.33;;
4112;SDS011;2070;51.042;7.056;2023-04-09T00:30:20;42.50;;;21.20;;
4112;SDS011;2070;51.042;7.056;2023-04-09T00:32:46;35.50;;;20.43;;
4112;SDS011;2070;51.042;7.056;2023-04-09T00:35:11;42.50;;;21.30;;
4112;SDS011;2070;51.042;7.056;2023-04-09T00:37:36;44.60;;;21.40;;
4112;SDS011;2070;51.042;7.056;2023-04-09T00:40:01;45.90;;;21.53;;
4112;SDS011;2070;51.042;7.056;2023-04-09T00:42:29;36.93;;;20.30;;
4112;SDS011;2070;51.042;7.056;2023-04-09T00:44:55;37.83;;;20.40;;
4112;SDS011;2070;51.042;7.056;2023-04-09T00:47:20;45.03;;;22.73;;
4112;SDS011;2070;51.042;7.056;2023-04-09T00:49:46;41.43;;;20.40;;
4112;SDS011;2070;51.042;7.056;2023-04-09T00:52:11;48.37;;;21.57;;
4112;SDS011;2070;51.042;7.056;2023-04-09T00:54:36;42.80;;;21.03;;
4112;SDS011;2070;51.042;7.056;2023-04-09T00:57:02;38.77;;;21.00;;
4112;SDS011;2070;51.042;7.056;2023-04-09T00:59:27;37.67;;;21.90;;
4112;SDS011;2070;51.042;7.056;2023-04-09T01:01:52;45.43;;;21.50;;
4112;SDS011;2070;51.042;7.056;2023-04-09T01:04:17;41.70;;;20.47;;
4112;SDS011;2070;51.042;7.056;2023-04-09T01:09:23;47.90;;;22.30;;
4112;SDS011;2070;51.042;7.056;2023-04-09T01:11:54;40.63;;;20.87;;
4112;SDS011;2070;51.042;7.056;2023-04-09T01:16:51;36.80;;;20.40;;
4112;SDS011;2070;51.042;7.056;2023-04-09T01:20:01;41.37;;;20.67;;
4112;SDS011;2070;51.042;7.056;2023-04-09T01:22:09;42.70;;;21.10;;
4112;SDS011;2070;51.042;7.056;2023-04-09T01:27:06;38.43;;;20.73;;
4112;SDS011;2070;51.042;7.056;2023-04-09T01:29:32;44.67;;;20.53;;
4112;SDS011;2070;51.042;7.056;2023-04-09T01:31:58;36.60;;;18.23;;
4112;SDS011;2070;51.042;7.056;2023-04-09T01:34:25;34.63;;;19.87;;
4112;SDS011;2070;51.042;7.056;2023-04-09T01:36:53;41.67;;;18.83;;
4112;SDS011;2070;51.042;7.056;2023-04-09T01:39:19;50.40;;;20.87;;
4112;SDS011;2070;51.042;7.056;2023-04-09T01:41:44;42.87;;;21.67;;
4112;SDS011;2070;51.042;7.056;2023-04-09T01:44:10;42.57;;;22.17;;
4112;SDS011;2070;51.042;7.056;2023-04-09T01:46:36;38.13;;;21.00;;
4112;SDS011;2070;51.042;7.056;2023-04-09T01:49:04;40.27;;;19.30;;
4112;SDS011;2070;51.042;7.056;2023-04-09T01:51:30;49.37;;;22.10;;
4112;SDS011;2070;51.042;7.056;2023-04-09T01:53:56;48.57;;;21.97;;
4112;SDS011;2070;51.042;7.056;2023-04-09T01:56:21;43.17;;;18.27;;
4112;SDS011;2070;51.042;7.056;2023-04-09T01:58:46;50.83;;;19.57;;
4112;SDS011;2070;51.042;7.056;2023-04-09T02:01:13;42.20;;;20.40;;
4112;SDS011;2070;51.042;7.056;2023-04-09T02:03:42;39.83;;;20.27;;
4112;SDS011;2070;51.042;7.056;2023-04-09T02:08:34;41.80;;;19.80;;
4112;SDS011;2070;51.042;7.056;2023-04-09T02:11:01;39.60;;;20.27;;
4112;SDS011;2070;51.042;7.056;2023-04-09T02:13:28;32.30;;;18.47;;
4112;SDS011;2070;51.042;7.056;2023-04-09T02:15:54;37.17;;;19.20;;
4112;SDS011;2070;51.042;7.056;2023-04-09T02:18:23;40.30;;;20.27;;
4112;SDS011;2070;51.042;7.056;2023-04-09T02:20:49;35.67;;;19.93;;
4112;SDS011;2070;51.042;7.056;2023-04-09T02:23:15;40.17;;;18.00;;
4112;SDS011;2070;51.042;7.056;2023-04-09T02:25:40;36.63;;;19.07;;
4112;SDS011;2070;51.042;7.056;2023-04-09T02:28:05;47.30;;;21.07;;
4112;SDS011;2070;51.042;7.056;2023-04-09T02:30:30;45.53;;;20.87;;
4112;SDS011;2070;51.042;7.056;2023-04-09T02:32:56;43.47;;;19.10;;
4112;SDS011;2070;51.042;7.056;2023-04-09T02:35:21;38.53;;;20.53;;
4112;SDS011;2070;51.042;7.056;2023-04-09T02:37:46;38.77;;;19.93;;
4112;SDS011;2070;51.042;7.056;2023-04-09T02:40:11;44.13;;;19.33;;
4112;SDS011;2070;51.042;7.056;2023-04-09T02:42:36;42.90;;;20.87;;
4112;SDS011;2070;51.042;7.056;2023-04-09T02:45:02;41.27;;;19.40;;
4112;SDS011;2070;51.042;7.056;2023-04-09T02:47:27;40.20;;;20.70;;
4112;SDS011;2070;51.042;7.056;2023-04-09T02:49:54;34.50;;;17.77;;
4112;SDS011;2070;51.042;7.056;2023-04-09T02:52:19;39.70;;;20.07;;
4112;SDS011;2070;51.042;7.056;2023-04-09T02:54:48;36.90;;;20.43;;
4112;SDS011;2070;51.042;7.056;2023-04-09T02:57:13;53.37;;;22.97;;
4112;SDS011;2070;51.042;7.056;2023-04-09T02:59:38;41.20;;;20.73;;
4112;SDS011;2070;51.042;7.056;2023-04-09T03:02:04;38.30;;;19.17;;
4112;SDS011;2070;51.042;7.056;2023-04-09T03:04:29;41.80;;;19.73;;
4112;SDS011;2070;51.042;7.056;2023-04-09T03:06:55;42.00;;;20.10;;
4112;SDS011;2070;51.042;7.056;2023-04-09T03:09:20;38.67;;;20.00;;
4112;SDS011;2070;51.042;7.056;2023-04-09T03:11:48;46.23;;;21.30;;
4112;SDS011;2070;51.042;7.056;2023-04-09T03:14:13;35.10;;;19.63;;
4112;SDS011;2070;51.042;7.056;2023-04-09T03:16:39;36.20;;;18.53;;
4112;SDS011;2070;51.042;7.056;2023-04-09T03:19:04;39.90;;;18.23;;
4112;SDS011;2070;51.042;7.056;2023-04-09T03:21:29;39.97;;;19.47;;
4112;SDS011;2070;51.042;7.056;2023-04-09T03:23:55;29.93;;;16.97;;
4112;SDS011;2070;51.042;7.056;2023-04-09T03:26:21;34.30;;;19.50;;
4112;SDS011;2070;51.042;7.056;2023-04-09T03:28:46;45.53;;;17.40;;
4112;SDS011;2070;51.042;7.056;2023-04-09T03:31:11;36.50;;;18.40;;
4112;SDS011;2070;51.042;7.056;2023-04-09T03:33:37;42.90;;;20.47;;
4112;SDS011;2070;51.042;7.056;2023-04-09T03:36:03;34.90;;;16.77;;
4112;SDS011;2070;51.042;7.056;2023-04-09T03:38:28;40.50;;;17.07;;
4112;SDS011;2070;51.042;7.056;2023-04-09T03:40:53;30.60;;;17.90;;
4112;SDS011;2070;51.042;7.056;2023-04-09T03:43:19;34.30;;;18.00;;
4112;SDS011;2070;51.042;7.056;2023-04-09T03:45:45;39.33;;;18.83;;
4112;SDS011;2070;51.042;7.056;2023-04-09T03:48:10;33.57;;;18.70;;
4112;SDS011;2070;51.042;7.056;2023-04-09T03:50:39;37.90;;;18.53;;
4112;SDS011;2070;51.042;7.056;2023-04-09T03:53:04;37.73;;;18.40;;
4112;SDS011;2070;51.042;7.056;2023-04-09T03:55:30;41.20;;;19.63;;
4112;SDS011;2070;51.042;7.056;2023-04-09T03:57:55;43.53;;;22.63;;
4112;SDS011;2070;51.042;7.056;2023-04-09T04:00:20;40.07;;;21.73;;
4112;SDS011;2070;51.042;7.056;2023-04-09T04:02:46;33.77;;;19.43;;
4112;SDS011;2070;51.042;7.056;2023-04-09T04:05:11;36.77;;;19.50;;
4112;SDS011;2070;51.042;7.056;2023-04-09T04:07:36;45.30;;;20.93;;
4112;SDS011;2070;51.042;7.056;2023-04-09T04:10:03;52.93;;;21.60;;
4112;SDS011;2070;51.042;7.056;2023-04-09T04:12:29;40.57;;;17.67;;
4112;SDS011;2070;51.042;7.056;2023-04-09T04:14:54;64.97;;;21.17;;
4112;SDS011;2070;51.042;7.056;2023-04-09T04:17:20;42.80;;;20.83;;
4112;SDS011;2070;51.042;7.056;2023-04-09T04:19:45;35.83;;;18.43;;
4112;SDS011;2070;51.042;7.056;2023-04-09T04:22:10;32.20;;;18.60;;
4112;SDS011;2070;51.042;7.056;2023-04-09T04:24:35;41.03;;;19.37;;
4112;SDS011;2070;51.042;7.056;2023-04-09T04:27:00;60.10;;;22.00;;
4112;SDS011;2070;51.042;7.056;2023-04-09T04:29:26;52.50;;;20.57;;
4112;SDS011;2070;51.042;7.056;2023-04-09T04:31:51;33.17;;;17.97;;
4112;SDS011;2070;51.042;7.056;2023-04-09T04:34:16;38.73;;;19.07;;
4112;SDS011;2070;51.042;7.056;2023-04-09T04:36:41;41.13;;;18.20;;
4112;SDS011;2070;51.042;7.056;2023-04-09T04:39:07;39.33;;;19.97;;
4112;SDS011;2070;51.042;7.056;2023-04-09T04:41:32;39.40;;;20.53;;
4112;SDS011;2070;51.042;7.056;2023-04-09T04:43:57;33.40;;;18.23;;
4112;SDS011;2070;51.042;7.056;2023-04-09T04:46:22;36.83;;;19.60;;
4112;SDS011;2070;51.042;7.056;2023-04-09T04:48:47;36.57;;;19.80;;
4112;SDS011;2070;51.042;7.056;2023-04-09T04:51:13;35.83;;;18.23;;
4112;SDS011;2070;51.042;7.056;2023-04-09T04:53:38;31.63;;;17.90;;
4112;SDS011;2070;51.042;7.056;2023-04-09T04:56:03;41.77;;;17.10;;
4112;SDS011;2070;51.042;7.056;2023-04-09T04:58:28;32.50;;;17.67;;
4112;SDS011;2070;51.042;7.056;2023-04-09T05:00:54;46.07;;;18.70;;
4112;SDS011;2070;51.042;7.056;2023-04-09T05:03:19;36.43;;;19.00;;
4112;SDS011;2070;51.042;7.056;2023-04-09T05:05:45;34.67;;;18.17;;
4112;SDS011;2070;51.042;7.056;2023-04-09T05:08:10;39.47;;;18.60;;
4112;SDS011;2070;51.042;7.056;2023-04-09T05:10:35;38.37;;;17.00;;
4112;SDS011;2070;51.042;7.056;2023-04-09T05:13:00;36.10;;;17.60;;
4112;SDS011;2070;51.042;7.056;2023-04-09T05:15:26;38.07;;;18.57;;
4112;SDS011;2070;51.042;7.056;2023-04-09T05:17:51;33.43;;;15.97;;
4112;SDS011;2070;51.042;7.056;2023-04-09T05:20:16;33.30;;;16.60;;
4112;SDS011;2070;51.042;7.056;2023-04-09T05:22:42;33.83;;;18.17;;
4112;SDS011;2070;51.042;7.056;2023-04-09T05:25:07;44.47;;;17.10;;
4112;SDS011;2070;51.042;7.056;2023-04-09T05:27:32;35.93;;;14.17;;
4112;SDS011;2070;51.042;7.056;2023-04-09T05:29:57;37.37;;;16.67;;
4112;SDS011;2070;51.042;7.056;2023-04-09T05:32:22;51.27;;;16.87;;
4112;SDS011;2070;51.042;7.056;2023-04-09T05:34:48;35.03;;;16.20;;
4112;SDS011;2070;51.042;7.056;2023-04-09T05:37:13;34.67;;;16.37;;
4112;SDS011;2070;51.042;7.056;2023-04-09T05:39:38;35.60;;;15.93;;
4112;SDS011;2070;51.042;7.056;2023-04-09T05:42:03;38.07;;;17.10;;
4112;SDS011;2070;51.042;7.056;2023-04-09T05:44:29;30.90;;;13.43;;
4112;SDS011;2070;51.042;7.056;2023-04-09T05:46:54;34.50;;;13.60;;
4112;SDS011;2070;51.042;7.056;2023-04-09T05:49:20;37.63;;;16.37;;
4112;SDS011;2070;51.042;7.056;2023-04-09T05:51:46;34.70;;;14.90;;
4112;SDS011;2070;51.042;7.056;2023-04-09T05:54:11;35.07;;;16.07;;
4112;SDS011;2070;51.042;7.056;2023-04-09T05:56:36;33.13;;;12.57;;
4112;SDS011;2070;51.042;7.056;2023-04-09T05:59:01;44.47;;;15.43;;
4112;SDS011;2070;51.042;7.056;2023-04-09T06:01:26;23.60;;;12.80;;
4112;SDS011;2070;51.042;7.056;2023-04-09T06:03:52;32.57;;;14.50;;
4112;SDS011;2070;51.042;7.056;2023-04-09T06:06:17;29.60;;;13.57;;
4112;SDS011;2070;51.042;7.056;2023-04-09T06:08:42;30.03;;;13.77;;
4112;SDS011;2070;51.042;7.056;2023-04-09T06:11:09;31.70;;;12.57;;
4112;SDS011;2070;51.042;7.056;2023-04-09T06:13:34;36.33;;;15.17;;
4112;SDS011;2070;51.042;7.056;2023-04-09T06:15:59;24.40;;;12.97;;
4112;SDS011;2070;51.042;7.056;2023-04-09T06:18:25;29.40;;;13.90;;
4112;SDS011;2070;51.042;7.056;2023-04-09T06:20:59;24.00;;;12.80;;
4112;SDS011;2070;51.042;7.056;2023-04-09T06:23:25;22.07;;;10.67;;
4112;SDS011;2070;51.042;7.056;2023-04-09T06:25:50;25.13;;;10.83;;
4112;SDS011;2070;51.042;7.056;2023-04-09T06:28:15;18.57;;;10.63;;
4112;SDS011;2070;51.042;7.056;2023-04-09T06:30:40;22.50;;;11.13;;
4112;SDS011;2070;51.042;7.056;2023-04-09T06:33:06;19.80;;;9.30;;
4112;SDS011;2070;51.042;7.056;2023-04-09T06:35:31;21.27;;;10.73;;
4112;SDS011;2070;51.042;7.056;2023-04-09T06:37:56;20.53;;;9.37;;
4112;SDS011;2070;51.042;7.056;2023-04-09T06:40:22;25.17;;;10.67;;
4112;SDS011;2070;51.042;7.056;2023-04-09T06:42:47;26.43;;;11.10;;
4112;SDS011;2070;51.042;7.056;2023-04-09T06:45:12;27.53;;;11.10;;
4112;SDS011;2070;51.042;7.056;2023-04-09T06:47:37;18.43;;;9.07;;
4112;SDS011;2070;51.042;7.056;2023-04-09T06:50:03;18.53;;;10.20;;
4112;SDS011;2070;51.042;7.056;2023-04-09T06:52:28;18.97;;;10.40;;
4112;SDS011;2070;51.042;7.056;2023-04-09T06:54:53;17.57;;;9.33;;
4112;SDS011;2070;51.042;7.056;2023-04-09T06:57:18;19.90;;;11.00;;
4112;SDS011;2070;51.042;7.056;2023-04-09T06:59:43;18.17;;;9.50;;
4112;SDS011;2070;51.042;7.056;2023-04-09T07:02:09;18.67;;;10.10;;
4112;SDS011;2070;51.042;7.056;2023-04-09T07:04:34;19.73;;;9.80;;
4112;SDS011;2070;51.042;7.056;2023-04-09T07:06:59;22.80;;;9.73;;
4112;SDS011;2070;51.042;7.056;2023-04-09T07:09:25;19.37;;;9.80;;
4112;SDS011;2070;51.042;7.056;2023-04-09T07:11:50;24.93;;;11.10;;
4112;SDS011;2070;51.042;7.056;2023-04-09T07:14:15;18.60;;;8.50;;
4112;SDS011;2070;51.042;7.056;2023-04-09T07:16:40;16.00;;;9.27;;
4112;SDS011;2070;51.042;7.056;2023-04-09T07:19:06;24.70;;;10.43;;
4112;SDS011;2070;51.042;7.056;2023-04-09T07:21:32;17.40;;;9.27;;
4112;SDS011;2070;51.042;7.056;2023-04-09T07:23:57;20.07;;;9.93;;
4112;SDS011;2070;51.042;7.056;2023-04-09T07:26:22;13.73;;;9.37;;
4112;SDS011;2070;51.042;7.056;2023-04-09T07:28:47;17.07;;;9.63;;
4112;SDS011;2070;51.042;7.056;2023-04-09T07:31:12;17.33;;;9.37;;
4112;SDS011;2070;51.042;7.056;2023-04-09T07:33:38;19.70;;;10.20;;
4112;SDS011;2070;51.042;7.056;2023-04-09T07:36:03;27.07;;;10.70;;
4112;SDS011;2070;51.042;7.056;2023-04-09T07:38:28;19.17;;;9.77;;
4112;SDS011;2070;51.042;7.056;2023-04-09T07:40:54;17.90;;;10.43;;
4112;SDS011;2070;51.042;7.056;2023-04-09T07:43:19;14.60;;;8.33;;
4112;SDS011;2070;51.042;7.056;2023-04-09T07:45:47;20.37;;;10.10;;
4112;SDS011;2070;51.042;7.056;2023-04-09T07:48:12;21.10;;;11.00;;
4112;SDS011;2070;51.042;7.056;2023-04-09T07:50:37;11.23;;;7.70;;
4112;SDS011;2070;51.042;7.056;2023-04-09T07:53:02;20.90;;;10.57;;
4112;SDS011;2070;51.042;7.056;2023-04-09T07:55:28;17.03;;;9.00;;
4112;SDS011;2070;51.042;7.056;2023-04-09T07:57:53;18.23;;;10.10;;
4112;SDS011;2070;51.042;7.056;2023-04-09T08:00:18;18.63;;;9.07;;
4112;SDS011;2070;51.042;7.056;2023-04-09T08:02:44;22.23;;;9.47;;
4112;SDS011;2070;51.042;7.056;2023-04-09T08:05:09;12.90;;;8.77;;
4112;SDS011;2070;51.042;7.056;2023-04-09T08:07:34;14.17;;;9.00;;
4112;SDS011;2070;51.042;7.056;2023-04-09T08:10:00;18.10;;;8.27;;
4112;SDS011;2070;51.042;7.056;2023-04-09T08:12:25;19.43;;;9.27;;
4112;SDS011;2070;51.042;7.056;2023-04-09T08:14:51;16.03;;;8.60;;
4112;SDS011;2070;51.042;7.056;2023-04-09T08:17:16;14.07;;;7.60;;
4112;SDS011;2070;51.042;7.056;2023-04-09T08:19:41;13.93;;;7.43;;
4112;SDS011;2070;51.042;7.056;2023-04-09T08:22:07;13.60;;;7.57;;
4112;SDS011;2070;51.042;7.056;2023-04-09T08:24:32;16.17;;;7.93;;
4112;SDS011;2070;51.042;7.056;2023-04-09T08:26:58;14.20;;;7.30;;
4112;SDS011;2070;51.042;7.056;2023-04-09T08:29:23;14.03;;;6.90;;
4112;SDS011;2070;51.042;7.056;2023-04-09T08:31:48;18.43;;;7.87;;
4112;SDS011;2070;51.042;7.056;2023-04-09T08:34:13;12.70;;;7.20;;
4112;SDS011;2070;51.042;7.056;2023-04-09T08:36:40;12.87;;;6.80;;
4112;SDS011;2070;51.042;7.056;2023-04-09T08:39:05;10.40;;;6.90;;
4112;SDS011;2070;51.042;7.056;2023-04-09T08:41:30;14.07;;;8.00;;
4112;SDS011;2070;51.042;7.056;2023-04-09T08:43:56;20.27;;;8.13;;
4112;SDS011;2070;51.042;7.056;2023-04-09T08:46:21;13.50;;;6.47;;
4112;SDS011;2070;51.042;7.056;2023-04-09T08:48:47;9.47;;;6.63;;
4112;SDS011;2070;51.042;7.056;2023-04-09T08:51:13;13.60;;;6.50;;
4112;SDS011;2070;51.042;7.056;2023-04-09T08:53:39;11.73;;;6.00;;
4112;SDS011;2070;51.042;7.056;2023-04-09T08:56:06;9.50;;;5.30;;
4112;SDS011;2070;51.042;7.056;2023-04-09T08:58:31;15.23;;;6.77;;
4112;SDS011;2070;51.042;7.056;2023-04-09T09:00:56;9.10;;;5.00;;
4112;SDS011;2070;51.042;7.056;2023-04-09T09:03:21;10.83;;;5.40;;
4112;SDS011;2070;51.042;7.056;2023-04-09T09:05:47;10.10;;;4.97;;
4112;SDS011;2070;51.042;7.056;2023-04-09T09:08:24;9.30;;;3.90;;
4112;SDS011;2070;51.042;7.056;2023-04-09T09:10:50;11.30;;;4.70;;
4112;SDS011;2070;51.042;7.056;2023-04-09T09:13:22;14.43;;;5.47;;
4112;SDS011;2070;51.042;7.056;2023-04-09T09:15:51;14.57;;;5.33;;
4112;SDS011;2070;51.042;7.056;2023-04-09T09:18:19;10.77;;;5.53;;
4112;SDS011;2070;51.042;7.056;2023-04-09T09:20:45;13.57;;;5.77;;
4112;SDS011;2070;51.042;7.056;2023-04-09T09:23:10;11.83;;;5.73;;
4112;SDS011;2070;51.042;7.056;2023-04-09T09:25:38;12.23;;;5.00;;
4112;SDS011;2070;51.042;7.056;2023-04-09T09:28:07;10.73;;;5.10;;
4112;SDS011;2070;51.042;7.056;2023-04-09T09:30:32;11.67;;;5.77;;
4112;SDS011;2070;51.042;7.056;2023-04-09T09:33:07;12.37;;;4.83;;
4112;SDS011;2070;51.042;7.056;2023-04-09T09:35:45;12.00;;;5.53;;
4112;SDS011;2070;51.042;7.056;2023-04-09T09:38:11;9.73;;;5.27;;
4112;SDS011;2070;51.042;7.056;2023-04-09T09:40:37;13.07;;;5.53;;
4112;SDS011;2070;51.042;7.056;2023-04-09T09:43:02;11.97;;;4.90;;
4112;SDS011;2070;51.042;7.056;2023-04-09T09:45:27;18.10;;;6.17;;
4112;SDS011;2070;51.042;7.056;2023-04-09T09:47:53;9.60;;;4.93;;
4112;SDS011;2070;51.042;7.056;2023-04-09T09:50:19;9.93;;;5.27;;
4112;SDS011;2070;51.042;7.056;2023-04-09T09:52:44;12.47;;;5.70;;
4112;SDS011;2070;51.042;7.056;2023-04-09T09:55:12;15.97;;;5.87;;
4112;SDS011;2070;51.042;7.056;2023-04-09T09:57:38;16.73;;;7.00;;
4112;SDS011;2070;51.042;7.056;2023-04-09T10:00:06;11.67;;;5.30;;
4112;SDS011;2070;51.042;7.056;2023-04-09T10:02:36;11.73;;;6.90;;
4112;SDS011;2070;51.042;7.056;2023-04-09T10:05:04;10.77;;;5.60;;
4112;SDS011;2070;51.042;7.056;2023-04-09T10:07:30;17.10;;;6.27;;
4112;SDS011;2070;51.042;7.056;2023-04-09T10:09:55;12.43;;;5.67;;
4112;SDS011;2070;51.042;7.056;2023-04-09T10:12:22;12.87;;;6.60;;
4112;SDS011;2070;51.042;7.056;2023-04-09T10:14:49;14.57;;;6.70;;
4112;SDS011;2070;51.042;7.056;2023-04-09T10:17:15;9.17;;;4.90;;
4112;SDS011;2070;51.042;7.056;2023-04-09T10:19:42;11.77;;;6.70;;
4112;SDS011;2070;51.042;7.056;2023-04-09T10:22:09;8.50;;;5.30;;
4112;SDS011;2070;51.042;7.056;2023-04-09T10:24:35;12.93;;;5.40;;
4112;SDS011;2070;51.042;7.056;2023-04-09T10:27:14;12.97;;;6.53;;
4112;SDS011;2070;51.042;7.056;2023-04-09T10:29:46;7.87;;;5.50;;
4112;SDS011;2070;51.042;7.056;2023-04-09T10:32:12;9.70;;;4.67;;
4112;SDS011;2070;51.042;7.056;2023-04-09T10:34:38;13.30;;;5.57;;
4112;SDS011;2070;51.042;7.056;2023-04-09T10:37:05;7.70;;;4.50;;
4112;SDS011;2070;51.042;7.056;2023-04-09T10:39:31;10.60;;;5.47;;
4112;SDS011;2070;51.042;7.056;2023-04-09T10:42:00;9.90;;;5.77;;
4112;SDS011;2070;51.042;7.056;2023-04-09T10:44:26;6.90;;;4.27;;
4112;SDS011;2070;51.042;7.056;2023-04-09T10:46:52;7.83;;;4.93;;
4112;SDS011;2070;51.042;7.056;2023-04-09T10:49:19;9.77;;;5.33;;
4112;SDS011;2070;51.042;7.056;2023-04-09T10:51:52;11.23;;;5.87;;
4112;SDS011;2070;51.042;7.056;2023-04-09T10:59:36;10.07;;;5.67;;
4112;SDS011;2070;51.042;7.056;2023-04-09T11:02:01;13.00;;;6.97;;
4112;SDS011;2070;51.042;7.056;2023-04-09T11:04:34;9.30;;;5.30;;
4112;SDS011;2070;51.042;7.056;2023-04-09T11:07:02;9.37;;;5.80;;
4112;SDS011;2070;51.042;7.056;2023-04-09T11:09:28;11.83;;;5.93;;
4112;SDS011;2070;51.042;7.056;2023-04-09T11:11:53;9.27;;;5.07;;
4112;SDS011;2070;51.042;7.056;2023-04-09T11:14:18;9.00;;;5.00;;
4112;SDS011;2070;51.042;7.056;2023-04-09T11:16:46;9.07;;;5.27;;
4112;SDS011;2070;51.042;7.056;2023-04-09T11:19:11;10.37;;;5.83;;
4112;SDS011;2070;51.042;7.056;2023-04-09T11:21:36;10.70;;;6.63;;
4112;SDS011;2070;51.042;7.056;2023-04-09T11:24:01;12.27;;;5.90;;
4112;SDS011;2070;51.042;7.056;2023-04-09T11:26:36;10.63;;;6.30;;
4112;SDS011;2070;51.042;7.056;2023-04-09T11:29:07;8.40;;;4.73;;
4112;SDS011;2070;51.042;7.056;2023-04-09T11:31:33;15.17;;;5.77;;
4112;SDS011;2070;51.042;7.056;2023-04-09T11:33:58;9.10;;;5.23;;
4112;SDS011;2070;51.042;7.056;2023-04-09T11:36:23;21.87;;;11.50;;
4112;SDS011;2070;51.042;7.056;2023-04-09T11:38:48;10.17;;;5.60;;
4112;SDS011;2070;51.042;7.056;2023-04-09T11:41:15;9.17;;;4.73;;
4112;SDS011;2070;51.042;7.056;2023-04-09T11:43:40;12.17;;;6.63;;
4112;SDS011;2070;51.042;7.056;2023-04-09T11:46:05;9.20;;;5.00;;
4112;SDS011;2070;51.042;7.056;2023-04-09T11:48:32;7.90;;;5.30;;
4112;SDS011;2070;51.042;7.056;2023-04-09T11:50:57;8.13;;;5.07;;
4112;SDS011;2070;51.042;7.056;2023-04-09T11:53:22;16.37;;;6.60;;
4112;SDS011;2070;51.042;7.056;2023-04-09T11:55:48;11.27;;;5.30;;
4112;SDS011;2070;51.042;7.056;2023-04-09T11:58:15;6.47;;;4.10;;
4112;SDS011;2070;51.042;7.056;2023-04-09T12:00:40;5.80;;;4.00;;
4112;SDS011;2070;51.042;7.056;2023-04-09T12:03:05;7.33;;;4.47;;
4112;SDS011;2070;51.042;7.056;2023-04-09T12:05:31;5.87;;;3.87;;
4112;SDS011;2070;51.042;7.056;2023-04-09T12:08:00;4.63;;;3.60;;
4112;SDS011;2070;51.042;7.056;2023-04-09T12:10:27;6.40;;;4.20;;
4112;SDS011;2070;51.042;7.056;2023-04-09T12:12:53;6.70;;;4.70;;
4112;SDS011;2070;51.042;7.056;2023-04-09T12:17:49;6.53;;;3.27;;
4112;SDS011;2070;51.042;7.056;2023-04-09T12:20:27;8.03;;;4.30;;
4112;SDS011;2070;51.042;7.056;2023-04-09T12:22:53;7.57;;;4.43;;
4112;SDS011;2070;51.042;7.056;2023-04-09T12:25:19;6.60;;;3.90;;
4112;SDS011;2070;51.042;7.056;2023-04-09T12:27:44;9.53;;;5.07;;
4112;SDS011;2070;51.042;7.056;2023-04-09T12:30:09;7.70;;;4.77;;
4112;SDS011;2070;51.042;7.056;2023-04-09T12:32:35;7.00;;;4.27;;
4112;SDS011;2070;51.042;7.056;2023-04-09T12:35:00;6.77;;;3.93;;
4112;SDS011;2070;51.042;7.056;2023-04-09T12:37:26;8.67;;;4.80;;
4112;SDS011;2070;51.042;7.056;2023-04-09T12:39:52;11.40;;;4.37;;
4112;SDS011;2070;51.042;7.056;2023-04-09T12:42:17;10.97;;;4.50;;
4112;SDS011;2070;51.042;7.056;2023-04-09T12:44:43;7.20;;;4.20;;
4112;SDS011;2070;51.042;7.056;2023-04-09T12:47:08;4.70;;;4.03;;
4112;SDS011;2070;51.042;7.056;2023-04-09T12:49:33;6.17;;;4.00;;
4112;SDS011;2070;51.042;7.056;2023-04-09T12:51:58;6.30;;;3.83;;
4112;SDS011;2070;51.042;7.056;2023-04-09T12:54:23;4.73;;;3.30;;
4112;SDS011;2070;51.042;7.056;2023-04-09T12:56:49;6.10;;;4.03;;
4112;SDS011;2070;51.042;7.056;2023-04-09T12:59:14;7.33;;;3.93;;
4112;SDS011;2070;51.042;7.056;2023-04-09T13:01:39;6.27;;;3.30;;
4112;SDS011;2070;51.042;7.056;2023-04-09T13:04:04;6.47;;;3.90;;
4112;SDS011;2070;51.042;7.056;2023-04-09T13:06:30;6.87;;;4.00;;
4112;SDS011;2070;51.042;7.056;2023-04-09T13:08:55;4.47;;;3.30;;
4112;SDS011;2070;51.042;7.056;2023-04-09T13:11:20;4.60;;;3.80;;
4112;SDS011;2070;51.042;7.056;2023-04-09T13:13:45;6.27;;;3.70;;
4112;SDS011;2070;51.042;7.056;2023-04-09T13:16:11;5.50;;;3.57;;
4112;SDS011;2070;51.042;7.056;2023-04-09T13:18:36;7.73;;;3.47;;
4112;SDS011;2070;51.042;7.056;2023-04-09T13:21:01;5.27;;;3.40;;
4112;SDS011;2070;51.042;7.056;2023-04-09T13:23:26;8.60;;;4.30;;
4112;SDS011;2070;51.042;7.056;2023-04-09T13:25:51;6.90;;;3.77;;
4112;SDS011;2070;51.042;7.056;2023-04-09T13:28:17;7.00;;;4.83;;
4112;SDS011;2070;51.042;7.056;2023-04-09T13:30:42;8.10;;;5.00;;
4112;SDS011;2070;51.042;7.056;2023-04-09T13:33:07;5.47;;;3.87;;
4112;SDS011;2070;51.042;7.056;2023-04-09T13:35:32;8.40;;;5.13;;
4112;SDS011;2070;51.042;7.056;2023-04-09T13:37:57;4.70;;;3.63;;
4112;SDS011;2070;51.042;7.056;2023-04-09T13:40:23;6.17;;;3.73;;
4112;SDS011;2070;51.042;7.056;2023-04-09T13:42:48;3.83;;;2.90;;
4112;SDS011;2070;51.042;7.056;2023-04-09T13:45:13;4.63;;;3.13;;
4112;SDS011;2070;51.042;7.056;2023-04-09T13:47:38;8.50;;;4.17;;
4112;SDS011;2070;51.042;7.056;2023-04-09T13:50:04;6.50;;;3.87;;
4112;SDS011;2070;51.042;7.056;2023-04-09T13:52:30;5.30;;;4.47;;
4112;SDS011;2070;51.042;7.056;2023-04-09T13:54:55;7.77;;;4.27;;
4112;SDS011;2070;51.042;7.056;2023-04-09T13:57:20;8.67;;;4.20;;
4112;SDS011;2070;51.042;7.056;2023-04-09T13:59:45;5.70;;;3.90;;
4112;SDS011;2070;51.042;7.056;2023-04-09T14:02:11;5.77;;;4.50;;
4112;SDS011;2070;51.042;7.056;2023-04-09T14:04:36;5.97;;;4.07;;
4112;SDS011;2070;51.042;7.056;2023-04-09T14:07:01;6.40;;;3.37;;
4112;SDS011;2070;51.042;7.056;2023-04-09T14:09:26;4.53;;;3.23;;
4112;SDS011;2070;51.042;7.056;2023-04-09T14:11:52;7.77;;;4.70;;
4112;SDS011;2070;51.042;7.056;2023-04-09T14:14:18;5.57;;;3.43;;
4112;SDS011;2070;51.042;7.056;2023-04-09T14:16:44;5.63;;;3.70;;
4112;SDS011;2070;51.042;7.056;2023-04-09T14:19:10;4.40;;;3.10;;
4112;SDS011;2070;51.042;7.056;2023-04-09T14:21:35;7.27;;;3.53;;
4112;SDS011;2070;51.042;7.056;2023-04-09T14:24:00;5.20;;;3.90;;
4112;SDS011;2070;51.042;7.056;2023-04-09T14:26:25;5.60;;;4.13;;
4112;SDS011;2070;51.042;7.056;2023-04-09T14:28:52;8.50;;;3.90;;
4112;SDS011;2070;51.042;7.056;2023-04-09T14:31:18;4.60;;;2.90;;
4112;SDS011;2070;51.042;7.056;2023-04-09T14:33:46;6.63;;;3.60;;
4112;SDS011;2070;51.042;7.056;2023-04-09T14:36:11;7.80;;;4.30;;
4112;SDS011;2070;51.042;7.056;2023-04-09T14:38:36;5.03;;;3.43;;
4112;SDS011;2070;51.042;7.056;2023-04-09T14:41:02;7.13;;;4.77;;
4112;SDS011;2070;51.042;7.056;2023-04-09T14:43:27;6.93;;;4.57;;
4112;SDS011;2070;51.042;7.056;2023-04-09T14:45:52;8.03;;;4.17;;
4112;SDS011;2070;51.042;7.056;2023-04-09T14:48:18;5.47;;;4.17;;
4112;SDS011;2070;51.042;7.056;2023-04-09T14:50:43;6.90;;;4.63;;
4112;SDS011;2070;51.042;7.056;2023-04-09T14:53:08;11.57;;;4.17;;
4112;SDS011;2070;51.042;7.056;2023-04-09T14:55:34;7.10;;;3.80;;
4112;SDS011;2070;51.042;7.056;2023-04-09T14:58:00;5.50;;;3.97;;
4112;SDS011;2070;51.042;7.056;2023-04-09T15:00:28;7.07;;;4.10;;
4112;SDS011;2070;51.042;7.056;2023-04-09T15:02:53;9.63;;;4.77;;
4112;SDS011;2070;51.042;7.056;2023-04-09T15:05:18;7.03;;;4.20;;
4112;SDS011;2070;51.042;7.056;2023-04-09T15:07:44;6.00;;;3.97;;